KBLF/BLF METAR and TAF weather

Enter ICAO airport designator
Station Type Date Time Source
KBLF METAR 2019/10/21 02:52 UTC NOAA

KBLF 210252Z AUTO 00000KT 8SM OVC003 11/11 A3006 RMK AO2 SLP170 T01110111 53010


Station Type Date Time Source
KBLF Decoded METAR 2019/10/21 02:52 UTC NOAA

BLUEFIELD MERCER COUNTY AIRPORT , WV, United States (KBLF) 37-18N 081-12W 873M
Oct 20, 2019 - 10:52 PM EDT / 2019.10.21 0252 UTC
Wind: Calm:0
Visibility: 8 mile(s):0
Sky conditions: overcast
Temperature: 52.0 F (11.1 C)
Dew Point: 52.0 F (11.1 C)
Relative Humidity: 100%
Pressure (altimeter): 30.06 in. Hg (1017 hPa)
Pressure tendency: 0.03 inches (1.0 hPa) higher than three hours ago
ob: KBLF 210252Z AUTO 00000KT 8SM OVC003 11/11 A3006 RMK AO2 SLP170 T01110111 53010
cycle: 3

Station Type Date Time Source
KBLF TAF 2019/10/20 22:21 UTC NOAA

TAF
AMD KBLF 202219Z 2022/2118 28005KT 2SM BR OVC002
TEMPO 2022/2101 3/4SM BR
FM210100 VRB02KT 1/4SM FG OVC002
FM211500 VRB04KT P6SM BKN012

Example: see airport list